sensor_id;sensor_type;location;lat;lon;timestamp;P1;durP1;ratioP1;P2;durP2;ratioP2
38083;SDS011;23894;51.466;7.444;2022-09-20T00:00:34;11.82;;;4.68;;
38083;SDS011;23894;51.466;7.444;2022-09-20T00:02:37;12.05;;;4.35;;
38083;SDS011;23894;51.466;7.444;2022-09-20T00:04:39;13.45;;;4.45;;
38083;SDS011;23894;51.466;7.444;2022-09-20T00:06:41;9.60;;;4.07;;
38083;SDS011;23894;51.466;7.444;2022-09-20T00:08:43;9.27;;;4.00;;
38083;SDS011;23894;51.466;7.444;2022-09-20T00:10:46;13.25;;;4.32;;
38083;SDS011;23894;51.466;7.444;2022-09-20T00:12:47;13.00;;;5.10;;
38083;SDS011;23894;51.466;7.444;2022-09-20T00:14:48;12.23;;;4.57;;
38083;SDS011;23894;51.466;7.444;2022-09-20T00:16:50;14.32;;;4.78;;
38083;SDS011;23894;51.466;7.444;2022-09-20T00:18:53;13.35;;;4.95;;
38083;SDS011;23894;51.466;7.444;2022-09-20T00:20:55;9.57;;;4.57;;
38083;SDS011;23894;51.466;7.444;2022-09-20T00:22:57;12.73;;;5.18;;
38083;SDS011;23894;51.466;7.444;2022-09-20T00:24:59;16.30;;;4.80;;
38083;SDS011;23894;51.466;7.444;2022-09-20T00:27:02;13.85;;;4.75;;
38083;SDS011;23894;51.466;7.444;2022-09-20T00:29:04;15.88;;;4.82;;
38083;SDS011;23894;51.466;7.444;2022-09-20T00:31:06;11.15;;;4.95;;
38083;SDS011;23894;51.466;7.444;2022-09-20T00:33:09;19.70;;;5.57;;
38083;SDS011;23894;51.466;7.444;2022-09-20T00:35:10;16.25;;;4.57;;
38083;SDS011;23894;51.466;7.444;2022-09-20T00:37:12;14.10;;;4.95;;
38083;SDS011;23894;51.466;7.444;2022-09-20T00:39:13;15.43;;;5.50;;
38083;SDS011;23894;51.466;7.444;2022-09-20T00:41:16;15.40;;;5.72;;
38083;SDS011;23894;51.466;7.444;2022-09-20T00:43:33;10.50;;;5.55;;
38083;SDS011;23894;51.466;7.444;2022-09-20T00:45:36;14.23;;;5.90;;
38083;SDS011;23894;51.466;7.444;2022-09-20T00:50:00;15.25;;;6.10;;
38083;SDS011;23894;51.466;7.444;2022-09-20T00:52:04;22.15;;;6.82;;
38083;SDS011;23894;51.466;7.444;2022-09-20T00:54:06;15.07;;;6.20;;
38083;SDS011;23894;51.466;7.444;2022-09-20T00:56:10;14.70;;;6.90;;
38083;SDS011;23894;51.466;7.444;2022-09-20T00:58:13;13.13;;;6.30;;
38083;SDS011;23894;51.466;7.444;2022-09-20T01:02:20;12.68;;;6.13;;
38083;SDS011;23894;51.466;7.444;2022-09-20T01:04:24;17.30;;;6.97;;
38083;SDS011;23894;51.466;7.444;2022-09-20T01:06:28;17.48;;;6.38;;
38083;SDS011;23894;51.466;7.444;2022-09-20T01:08:31;16.20;;;7.38;;
38083;SDS011;23894;51.466;7.444;2022-09-20T01:10:33;16.65;;;6.15;;
38083;SDS011;23894;51.466;7.444;2022-09-20T01:12:36;21.63;;;7.22;;
38083;SDS011;23894;51.466;7.444;2022-09-20T01:14:41;16.92;;;6.82;;
38083;SDS011;23894;51.466;7.444;2022-09-20T01:16:42;18.45;;;6.47;;
38083;SDS011;23894;51.466;7.444;2022-09-20T01:20:46;12.38;;;5.53;;
38083;SDS011;23894;51.466;7.444;2022-09-20T01:25:10;11.85;;;5.38;;
38083;SDS011;23894;51.466;7.444;2022-09-20T01:28:01;14.40;;;5.90;;
38083;SDS011;23894;51.466;7.444;2022-09-20T01:32:01;15.02;;;6.63;;
38083;SDS011;23894;51.466;7.444;2022-09-20T01:34:13;18.15;;;6.40;;
38083;SDS011;23894;51.466;7.444;2022-09-20T01:36:17;20.02;;;6.10;;
38083;SDS011;23894;51.466;7.444;2022-09-20T01:42:57;13.35;;;5.80;;
38083;SDS011;23894;51.466;7.444;2022-09-20T01:45:20;15.80;;;5.78;;
38083;SDS011;23894;51.466;7.444;2022-09-20T01:48:07;14.50;;;6.35;;
38083;SDS011;23894;51.466;7.444;2022-09-20T01:54:33;12.35;;;5.40;;
38083;SDS011;23894;51.466;7.444;2022-09-20T01:59:21;15.05;;;6.28;;
38083;SDS011;23894;51.466;7.444;2022-09-20T02:06:27;14.00;;;6.18;;
38083;SDS011;23894;51.466;7.444;2022-09-20T02:11:08;12.25;;;5.78;;
38083;SDS011;23894;51.466;7.444;2022-09-20T02:18:00;13.75;;;6.75;;
38083;SDS011;23894;51.466;7.444;2022-09-20T02:24:40;13.38;;;7.22;;
38083;SDS011;23894;51.466;7.444;2022-09-20T02:29:11;17.95;;;7.05;;
38083;SDS011;23894;51.466;7.444;2022-09-20T02:40:49;12.63;;;6.82;;
38083;SDS011;23894;51.466;7.444;2022-09-20T02:43:00;17.30;;;7.25;;
38083;SDS011;23894;51.466;7.444;2022-09-20T02:45:08;17.80;;;7.43;;
38083;SDS011;23894;51.466;7.444;2022-09-20T02:51:46;16.80;;;6.80;;
38083;SDS011;23894;51.466;7.444;2022-09-20T02:53:56;17.75;;;6.45;;
38083;SDS011;23894;51.466;7.444;2022-09-20T02:56:14;19.00;;;7.50;;
38083;SDS011;23894;51.466;7.444;2022-09-20T02:58:35;14.35;;;7.32;;
38083;SDS011;23894;51.466;7.444;2022-09-20T03:14:37;18.58;;;8.02;;
38083;SDS011;23894;51.466;7.444;2022-09-20T03:23:51;14.15;;;7.38;;
38083;SDS011;23894;51.466;7.444;2022-09-20T03:25:56;18.60;;;7.10;;
38083;SDS011;23894;51.466;7.444;2022-09-20T03:32:56;15.18;;;6.68;;
38083;SDS011;23894;51.466;7.444;2022-09-20T03:39:48;16.13;;;6.95;;
38083;SDS011;23894;51.466;7.444;2022-09-20T03:42:12;16.13;;;7.88;;
38083;SDS011;23894;51.466;7.444;2022-09-20T03:46:54;14.13;;;7.93;;
38083;SDS011;23894;51.466;7.444;2022-09-20T03:53:38;16.70;;;8.18;;
38083;SDS011;23894;51.466;7.444;2022-09-20T03:55:57;15.80;;;7.00;;
38083;SDS011;23894;51.466;7.444;2022-09-20T03:58:06;13.80;;;7.18;;
38083;SDS011;23894;51.466;7.444;2022-09-20T04:02:31;13.15;;;6.35;;
38083;SDS011;23894;51.466;7.444;2022-09-20T04:04:52;14.05;;;6.85;;
38083;SDS011;23894;51.466;7.444;2022-09-20T04:18:25;13.57;;;6.68;;
38083;SDS011;23894;51.466;7.444;2022-09-20T04:20:33;12.43;;;6.68;;
38083;SDS011;23894;51.466;7.444;2022-09-20T04:22:37;15.00;;;6.80;;
38083;SDS011;23894;51.466;7.444;2022-09-20T04:24:43;13.73;;;7.25;;
38083;SDS011;23894;51.466;7.444;2022-09-20T04:26:49;14.35;;;7.20;;
38083;SDS011;23894;51.466;7.444;2022-09-20T04:31:13;12.43;;;6.13;;
38083;SDS011;23894;51.466;7.444;2022-09-20T04:37:42;10.07;;;5.57;;
38083;SDS011;23894;51.466;7.444;2022-09-20T04:39:46;10.50;;;5.70;;
38083;SDS011;23894;51.466;7.444;2022-09-20T04:44:21;11.88;;;6.28;;
38083;SDS011;23894;51.466;7.444;2022-09-20T04:46:33;10.40;;;6.68;;
38083;SDS011;23894;51.466;7.444;2022-09-20T04:50:49;14.50;;;6.88;;
38083;SDS011;23894;51.466;7.444;2022-09-20T05:01:54;15.23;;;7.82;;
38083;SDS011;23894;51.466;7.444;2022-09-20T05:12:51;9.27;;;5.97;;
38083;SDS011;23894;51.466;7.444;2022-09-20T05:15:07;16.25;;;7.43;;
38083;SDS011;23894;51.466;7.444;2022-09-20T05:26:02;17.10;;;8.00;;
38083;SDS011;23894;51.466;7.444;2022-09-20T05:30:34;15.77;;;8.23;;
38083;SDS011;23894;51.466;7.444;2022-09-20T05:32:44;12.98;;;7.60;;
38083;SDS011;23894;51.466;7.444;2022-09-20T05:34:49;13.55;;;7.85;;
38083;SDS011;23894;51.466;7.444;2022-09-20T05:41:45;13.45;;;8.23;;
38083;SDS011;23894;51.466;7.444;2022-09-20T05:52:37;16.80;;;9.55;;
38083;SDS011;23894;51.466;7.444;2022-09-20T06:03:19;17.00;;;10.73;;
38083;SDS011;23894;51.466;7.444;2022-09-20T06:07:45;19.33;;;10.77;;
38083;SDS011;23894;51.466;7.444;2022-09-20T06:12:03;20.73;;;10.95;;
38083;SDS011;23894;51.466;7.444;2022-09-20T06:16:24;16.75;;;10.48;;
38083;SDS011;23894;51.466;7.444;2022-09-20T06:18:33;20.83;;;11.70;;
38083;SDS011;23894;51.466;7.444;2022-09-20T06:20:40;20.13;;;10.95;;
38083;SDS011;23894;51.466;7.444;2022-09-20T06:22:47;19.75;;;11.77;;
38083;SDS011;23894;51.466;7.444;2022-09-20T06:25:00;22.67;;;11.50;;
38083;SDS011;23894;51.466;7.444;2022-09-20T06:27:07;22.27;;;11.70;;
38083;SDS011;23894;51.466;7.444;2022-09-20T06:29:10;20.10;;;11.52;;
38083;SDS011;23894;51.466;7.444;2022-09-20T06:31:13;21.58;;;11.77;;
38083;SDS011;23894;51.466;7.444;2022-09-20T06:35:17;20.60;;;11.27;;
38083;SDS011;23894;51.466;7.444;2022-09-20T06:42:13;22.05;;;11.18;;
38083;SDS011;23894;51.466;7.444;2022-09-20T06:44:14;20.08;;;10.70;;
38083;SDS011;23894;51.466;7.444;2022-09-20T06:46:15;23.08;;;11.27;;
38083;SDS011;23894;51.466;7.444;2022-09-20T06:48:16;24.13;;;11.80;;
38083;SDS011;23894;51.466;7.444;2022-09-20T06:50:18;19.30;;;12.20;;
38083;SDS011;23894;51.466;7.444;2022-09-20T06:54:20;19.30;;;9.73;;
38083;SDS011;23894;51.466;7.444;2022-09-20T06:56:22;19.92;;;11.23;;
38083;SDS011;23894;51.466;7.444;2022-09-20T06:58:25;20.35;;;10.63;;
38083;SDS011;23894;51.466;7.444;2022-09-20T07:00:27;26.25;;;12.63;;
38083;SDS011;23894;51.466;7.444;2022-09-20T07:04:29;23.15;;;11.60;;
38083;SDS011;23894;51.466;7.444;2022-09-20T07:08:31;22.42;;;11.00;;
38083;SDS011;23894;51.466;7.444;2022-09-20T07:12:33;19.25;;;10.48;;
38083;SDS011;23894;51.466;7.444;2022-09-20T07:14:34;19.85;;;11.27;;
38083;SDS011;23894;51.466;7.444;2022-09-20T07:16:36;20.45;;;11.45;;
38083;SDS011;23894;51.466;7.444;2022-09-20T07:18:39;21.77;;;11.45;;
38083;SDS011;23894;51.466;7.444;2022-09-20T07:20:43;19.90;;;9.73;;
38083;SDS011;23894;51.466;7.444;2022-09-20T07:22:44;18.35;;;10.27;;
38083;SDS011;23894;51.466;7.444;2022-09-20T07:24:45;20.48;;;10.30;;
38083;SDS011;23894;51.466;7.444;2022-09-20T07:27:00;23.45;;;10.77;;
38083;SDS011;23894;51.466;7.444;2022-09-20T07:29:02;21.95;;;10.30;;
38083;SDS011;23894;51.466;7.444;2022-09-20T07:31:03;18.25;;;9.48;;
38083;SDS011;23894;51.466;7.444;2022-09-20T07:33:04;18.83;;;9.57;;
38083;SDS011;23894;51.466;7.444;2022-09-20T07:35:10;16.90;;;8.68;;
38083;SDS011;23894;51.466;7.444;2022-09-20T07:37:11;17.70;;;9.15;;
38083;SDS011;23894;51.466;7.444;2022-09-20T07:39:12;16.67;;;7.45;;
38083;SDS011;23894;51.466;7.444;2022-09-20T07:41:13;11.98;;;6.55;;
38083;SDS011;23894;51.466;7.444;2022-09-20T07:43:15;17.63;;;7.10;;
38083;SDS011;23894;51.466;7.444;2022-09-20T07:45:16;16.77;;;6.65;;
38083;SDS011;23894;51.466;7.444;2022-09-20T07:49:19;14.18;;;5.38;;
38083;SDS011;23894;51.466;7.444;2022-09-20T07:51:20;11.05;;;4.82;;
38083;SDS011;23894;51.466;7.444;2022-09-20T07:53:21;13.55;;;4.78;;
38083;SDS011;23894;51.466;7.444;2022-09-20T07:57:23;12.60;;;4.60;;
38083;SDS011;23894;51.466;7.444;2022-09-20T07:59:24;15.30;;;5.72;;
38083;SDS011;23894;51.466;7.444;2022-09-20T08:03:28;10.38;;;4.78;;
38083;SDS011;23894;51.466;7.444;2022-09-20T08:05:29;14.32;;;5.53;;
38083;SDS011;23894;51.466;7.444;2022-09-20T08:07:30;9.88;;;4.90;;
38083;SDS011;23894;51.466;7.444;2022-09-20T08:09:32;13.50;;;5.15;;
38083;SDS011;23894;51.466;7.444;2022-09-20T08:11:33;13.20;;;5.00;;
38083;SDS011;23894;51.466;7.444;2022-09-20T08:13:35;12.25;;;5.35;;
38083;SDS011;23894;51.466;7.444;2022-09-20T08:15:36;12.27;;;5.13;;
38083;SDS011;23894;51.466;7.444;2022-09-20T08:17:37;10.95;;;4.97;;
38083;SDS011;23894;51.466;7.444;2022-09-20T08:19:39;13.02;;;5.28;;
38083;SDS011;23894;51.466;7.444;2022-09-20T08:21:42;11.95;;;4.68;;
38083;SDS011;23894;51.466;7.444;2022-09-20T08:23:44;11.88;;;5.00;;
38083;SDS011;23894;51.466;7.444;2022-09-20T08:25:46;11.52;;;5.32;;
38083;SDS011;23894;51.466;7.444;2022-09-20T08:27:52;13.35;;;4.88;;
38083;SDS011;23894;51.466;7.444;2022-09-20T08:29:53;18.63;;;5.78;;
38083;SDS011;23894;51.466;7.444;2022-09-20T08:31:56;14.05;;;5.93;;
38083;SDS011;23894;51.466;7.444;2022-09-20T08:33:59;10.05;;;5.50;;
38083;SDS011;23894;51.466;7.444;2022-09-20T08:36:06;13.45;;;5.10;;
38083;SDS011;23894;51.466;7.444;2022-09-20T08:38:08;13.13;;;5.75;;
38083;SDS011;23894;51.466;7.444;2022-09-20T08:40:11;15.70;;;6.53;;
38083;SDS011;23894;51.466;7.444;2022-09-20T08:42:23;15.93;;;6.63;;
38083;SDS011;23894;51.466;7.444;2022-09-20T08:44:31;14.52;;;6.70;;
38083;SDS011;23894;51.466;7.444;2022-09-20T08:46:37;14.23;;;6.80;;
38083;SDS011;23894;51.466;7.444;2022-09-20T08:48:38;15.57;;;6.97;;
38083;SDS011;23894;51.466;7.444;2022-09-20T08:50:39;14.57;;;5.78;;
38083;SDS011;23894;51.466;7.444;2022-09-20T08:52:43;12.30;;;5.93;;
38083;SDS011;23894;51.466;7.444;2022-09-20T08:54:45;16.05;;;6.82;;
38083;SDS011;23894;51.466;7.444;2022-09-20T08:58:50;14.52;;;6.50;;
38083;SDS011;23894;51.466;7.444;2022-09-20T09:00:52;14.50;;;6.32;;
38083;SDS011;23894;51.466;7.444;2022-09-20T09:02:59;15.15;;;6.20;;
38083;SDS011;23894;51.466;7.444;2022-09-20T09:05:05;16.65;;;6.03;;
38083;SDS011;23894;51.466;7.444;2022-09-20T09:07:12;13.52;;;5.78;;
38083;SDS011;23894;51.466;7.444;2022-09-20T09:09:20;17.58;;;5.82;;
38083;SDS011;23894;51.466;7.444;2022-09-20T09:11:22;15.32;;;5.88;;
38083;SDS011;23894;51.466;7.444;2022-09-20T09:13:36;15.02;;;5.78;;
38083;SDS011;23894;51.466;7.444;2022-09-20T09:15:39;15.35;;;5.90;;
38083;SDS011;23894;51.466;7.444;2022-09-20T09:17:41;13.35;;;5.75;;
38083;SDS011;23894;51.466;7.444;2022-09-20T09:19:44;14.82;;;5.60;;
38083;SDS011;23894;51.466;7.444;2022-09-20T09:21:45;17.10;;;6.90;;
38083;SDS011;23894;51.466;7.444;2022-09-20T09:23:54;13.02;;;6.45;;
38083;SDS011;23894;51.466;7.444;2022-09-20T09:26:02;20.20;;;7.10;;
38083;SDS011;23894;51.466;7.444;2022-09-20T09:30:18;12.05;;;6.78;;
38083;SDS011;23894;51.466;7.444;2022-09-20T09:32:24;13.05;;;6.60;;
38083;SDS011;23894;51.466;7.444;2022-09-20T09:34:29;18.05;;;7.38;;
38083;SDS011;23894;51.466;7.444;2022-09-20T09:36:30;15.88;;;6.70;;
38083;SDS011;23894;51.466;7.444;2022-09-20T09:38:36;18.55;;;7.10;;
38083;SDS011;23894;51.466;7.444;2022-09-20T09:40:38;15.60;;;6.53;;
38083;SDS011;23894;51.466;7.444;2022-09-20T09:42:49;15.45;;;6.82;;
38083;SDS011;23894;51.466;7.444;2022-09-20T09:44:51;14.43;;;5.68;;
38083;SDS011;23894;51.466;7.444;2022-09-20T09:51:13;11.43;;;5.00;;
38083;SDS011;23894;51.466;7.444;2022-09-20T09:53:16;10.57;;;5.30;;
38083;SDS011;23894;51.466;7.444;2022-09-20T09:55:19;10.50;;;5.88;;
38083;SDS011;23894;51.466;7.444;2022-09-20T10:01:35;13.02;;;5.38;;
38083;SDS011;23894;51.466;7.444;2022-09-20T10:03:56;12.88;;;5.00;;
38083;SDS011;23894;51.466;7.444;2022-09-20T10:12:39;10.63;;;3.97;;
38083;SDS011;23894;51.466;7.444;2022-09-20T10:17:00;10.27;;;4.03;;
38083;SDS011;23894;51.466;7.444;2022-09-20T10:19:12;10.15;;;3.40;;
38083;SDS011;23894;51.466;7.444;2022-09-20T10:27:57;10.40;;;4.05;;
38083;SDS011;23894;51.466;7.444;2022-09-20T10:30:09;8.90;;;3.38;;
38083;SDS011;23894;51.466;7.444;2022-09-20T10:32:24;10.57;;;3.73;;
38083;SDS011;23894;51.466;7.444;2022-09-20T10:34:49;10.45;;;3.53;;
38083;SDS011;23894;51.466;7.444;2022-09-20T10:36:53;10.38;;;3.40;;
38083;SDS011;23894;51.466;7.444;2022-09-20T10:41:09;10.82;;;2.90;;
38083;SDS011;23894;51.466;7.444;2022-09-20T10:51:52;8.93;;;2.20;;
38083;SDS011;23894;51.466;7.444;2022-09-20T11:02:55;6.78;;;1.90;;
38083;SDS011;23894;51.466;7.444;2022-09-20T11:09:41;9.90;;;1.80;;
38083;SDS011;23894;51.466;7.444;2022-09-20T11:11:44;8.98;;;1.80;;
38083;SDS011;23894;51.466;7.444;2022-09-20T11:13:49;7.78;;;1.70;;
38083;SDS011;23894;51.466;7.444;2022-09-20T11:15:55;7.55;;;1.80;;
38083;SDS011;23894;51.466;7.444;2022-09-20T11:18:03;7.72;;;2.15;;
38083;SDS011;23894;51.466;7.444;2022-09-20T11:20:15;5.70;;;1.80;;
38083;SDS011;23894;51.466;7.444;2022-09-20T11:22:21;8.45;;;2.08;;
38083;SDS011;23894;51.466;7.444;2022-09-20T11:24:31;5.20;;;1.73;;
38083;SDS011;23894;51.466;7.444;2022-09-20T11:26:36;7.22;;;1.60;;
38083;SDS011;23894;51.466;7.444;2022-09-20T11:28:39;6.13;;;1.50;;
38083;SDS011;23894;51.466;7.444;2022-09-20T11:31:05;6.60;;;1.60;;
38083;SDS011;23894;51.466;7.444;2022-09-20T11:37:10;5.70;;;1.60;;
38083;SDS011;23894;51.466;7.444;2022-09-20T11:39:24;8.32;;;1.73;;
38083;SDS011;23894;51.466;7.444;2022-09-20T11:41:29;5.60;;;1.50;;
38083;SDS011;23894;51.466;7.444;2022-09-20T11:43:30;6.43;;;1.60;;
38083;SDS011;23894;51.466;7.444;2022-09-20T11:45:31;6.25;;;1.40;;
38083;SDS011;23894;51.466;7.444;2022-09-20T11:48:06;7.35;;;1.40;;
38083;SDS011;23894;51.466;7.444;2022-09-20T11:54:27;4.22;;;1.38;;
38083;SDS011;23894;51.466;7.444;2022-09-20T11:56:30;6.95;;;1.90;;
38083;SDS011;23894;51.466;7.444;2022-09-20T11:58:46;7.38;;;1.40;;
38083;SDS011;23894;51.466;7.444;2022-09-20T12:00:49;7.75;;;1.70;;
38083;SDS011;23894;51.466;7.444;2022-09-20T12:02:53;6.43;;;1.50;;
38083;SDS011;23894;51.466;7.444;2022-09-20T12:06:57;7.38;;;1.85;;
38083;SDS011;23894;51.466;7.444;2022-09-20T12:09:44;5.78;;;1.52;;
38083;SDS011;23894;51.466;7.444;2022-09-20T12:13:22;9.00;;;1.80;;
38083;SDS011;23894;51.466;7.444;2022-09-20T12:21:31;6.13;;;1.50;;
38083;SDS011;23894;51.466;7.444;2022-09-20T12:26:00;6.10;;;1.60;;
38083;SDS011;23894;51.466;7.444;2022-09-20T12:28:02;6.20;;;1.58;;
38083;SDS011;23894;51.466;7.444;2022-09-20T12:30:14;4.63;;;1.48;;
38083;SDS011;23894;51.466;7.444;2022-09-20T12:32:39;5.45;;;1.48;;
38083;SDS011;23894;51.466;7.444;2022-09-20T12:34:40;6.80;;;1.42;;
38083;SDS011;23894;51.466;7.444;2022-09-20T12:38:46;7.05;;;1.58;;
38083;SDS011;23894;51.466;7.444;2022-09-20T12:41:01;6.13;;;1.45;;
38083;SDS011;23894;51.466;7.444;2022-09-20T12:43:02;6.93;;;1.33;;
38083;SDS011;23894;51.466;7.444;2022-09-20T12:49:19;5.65;;;1.73;;
38083;SDS011;23894;51.466;7.444;2022-09-20T12:51:40;8.05;;;1.60;;
38083;SDS011;23894;51.466;7.444;2022-09-20T12:54:00;7.57;;;2.10;;
38083;SDS011;23894;51.466;7.444;2022-09-20T13:00:04;6.13;;;2.00;;
38083;SDS011;23894;51.466;7.444;2022-09-20T13:04:38;6.30;;;2.13;;
38083;SDS011;23894;51.466;7.444;2022-09-20T13:06:40;6.45;;;1.73;;
38083;SDS011;23894;51.466;7.444;2022-09-20T13:11:00;8.38;;;2.03;;
38083;SDS011;23894;51.466;7.444;2022-09-20T13:13:11;7.47;;;1.80;;
38083;SDS011;23894;51.466;7.444;2022-09-20T13:15:16;6.22;;;2.10;;
38083;SDS011;23894;51.466;7.444;2022-09-20T13:17:21;5.35;;;1.80;;
38083;SDS011;23894;51.466;7.444;2022-09-20T13:19:26;6.40;;;1.83;;
38083;SDS011;23894;51.466;7.444;2022-09-20T13:21:28;4.63;;;1.60;;
38083;SDS011;23894;51.466;7.444;2022-09-20T13:23:42;6.03;;;1.52;;
38083;SDS011;23894;51.466;7.444;2022-09-20T13:25:44;9.05;;;1.60;;
38083;SDS011;23894;51.466;7.444;2022-09-20T13:27:48;6.72;;;1.70;;
38083;SDS011;23894;51.466;7.444;2022-09-20T13:29:50;5.82;;;1.67;;
38083;SDS011;23894;51.466;7.444;2022-09-20T13:31:52;9.75;;;1.98;;
38083;SDS011;23894;51.466;7.444;2022-09-20T13:34:10;7.60;;;1.80;;
38083;SDS011;23894;51.466;7.444;2022-09-20T13:36:12;6.60;;;2.15;;
38083;SDS011;23894;51.466;7.444;2022-09-20T13:38:13;7.55;;;2.00;;
38083;SDS011;23894;51.466;7.444;2022-09-20T13:40:25;7.13;;;1.50;;
38083;SDS011;23894;51.466;7.444;2022-09-20T13:42:32;7.15;;;1.65;;
38083;SDS011;23894;51.466;7.444;2022-09-20T13:44:34;6.55;;;1.40;;
38083;SDS011;23894;51.466;7.444;2022-09-20T13:46:41;8.98;;;2.00;;
38083;SDS011;23894;51.466;7.444;2022-09-20T13:48:46;5.55;;;1.38;;
38083;SDS011;23894;51.466;7.444;2022-09-20T13:50:47;5.28;;;1.80;;
38083;SDS011;23894;51.466;7.444;2022-09-20T13:54:49;5.13;;;1.60;;
38083;SDS011;23894;51.466;7.444;2022-09-20T13:56:50;6.03;;;1.60;;
38083;SDS011;23894;51.466;7.444;2022-09-20T13:58:51;5.30;;;1.48;;
38083;SDS011;23894;51.466;7.444;2022-09-20T14:01:03;7.65;;;1.88;;
38083;SDS011;23894;51.466;7.444;2022-09-20T14:03:05;6.90;;;1.60;;
38083;SDS011;23894;51.466;7.444;2022-09-20T14:05:12;6.38;;;1.45;;
38083;SDS011;23894;51.466;7.444;2022-09-20T14:07:14;5.63;;;1.50;;
38083;SDS011;23894;51.466;7.444;2022-09-20T14:09:20;5.75;;;1.50;;
38083;SDS011;23894;51.466;7.444;2022-09-20T14:11:28;6.95;;;1.52;;
38083;SDS011;23894;51.466;7.444;2022-09-20T14:13:30;5.68;;;1.65;;
38083;SDS011;23894;51.466;7.444;2022-09-20T14:15:34;5.05;;;1.52;;
38083;SDS011;23894;51.466;7.444;2022-09-20T14:17:36;6.80;;;1.42;;
38083;SDS011;23894;51.466;7.444;2022-09-20T14:21:39;6.30;;;1.70;;
38083;SDS011;23894;51.466;7.444;2022-09-20T14:23:51;6.90;;;2.03;;
38083;SDS011;23894;51.466;7.444;2022-09-20T14:30:30;6.38;;;1.60;;
38083;SDS011;23894;51.466;7.444;2022-09-20T14:36:33;5.97;;;1.80;;
38083;SDS011;23894;51.466;7.444;2022-09-20T14:40:42;5.43;;;1.63;;
38083;SDS011;23894;51.466;7.444;2022-09-20T14:42:45;7.30;;;1.63;;
38083;SDS011;23894;51.466;7.444;2022-09-20T14:44:48;9.15;;;1.35;;
38083;SDS011;23894;51.466;7.444;2022-09-20T14:46:50;5.95;;;1.38;;
38083;SDS011;23894;51.466;7.444;2022-09-20T14:48:53;6.40;;;1.45;;
38083;SDS011;23894;51.466;7.444;2022-09-20T14:51:11;6.72;;;1.60;;
38083;SDS011;23894;51.466;7.444;2022-09-20T14:53:23;4.47;;;1.50;;
38083;SDS011;23894;51.466;7.444;2022-09-20T14:55:25;6.53;;;1.67;;
38083;SDS011;23894;51.466;7.444;2022-09-20T14:57:31;7.25;;;1.52;;
38083;SDS011;23894;51.466;7.444;2022-09-20T15:01:34;4.70;;;1.20;;
38083;SDS011;23894;51.466;7.444;2022-09-20T15:03:37;5.20;;;1.30;;
38083;SDS011;23894;51.466;7.444;2022-09-20T15:05:39;5.40;;;1.73;;
38083;SDS011;23894;51.466;7.444;2022-09-20T15:09:41;6.82;;;1.52;;
38083;SDS011;23894;51.466;7.444;2022-09-20T15:11:42;5.45;;;1.55;;
38083;SDS011;23894;51.466;7.444;2022-09-20T15:15:46;7.82;;;1.98;;
38083;SDS011;23894;51.466;7.444;2022-09-20T15:17:49;8.48;;;2.97;;
38083;SDS011;23894;51.466;7.444;2022-09-20T15:19:50;8.20;;;2.55;;
38083;SDS011;23894;51.466;7.444;2022-09-20T15:23:52;5.95;;;2.35;;
38083;SDS011;23894;51.466;7.444;2022-09-20T15:27:54;7.25;;;2.17;;
38083;SDS011;23894;51.466;7.444;2022-09-20T15:29:56;6.93;;;2.05;;
38083;SDS011;23894;51.466;7.444;2022-09-20T15:33:58;5.82;;;1.70;;
38083;SDS011;23894;51.466;7.444;2022-09-20T15:40:02;8.27;;;1.75;;
38083;SDS011;23894;51.466;7.444;2022-09-20T15:42:03;6.03;;;1.35;;
38083;SDS011;23894;51.466;7.444;2022-09-20T15:44:05;7.65;;;1.60;;
38083;SDS011;23894;51.466;7.444;2022-09-20T15:48:17;5.43;;;1.38;;
38083;SDS011;23894;51.466;7.444;2022-09-20T15:50:20;6.80;;;1.77;;
38083;SDS011;23894;51.466;7.444;2022-09-20T15:52:22;7.97;;;2.08;;
38083;SDS011;23894;51.466;7.444;2022-09-20T15:54:24;7.97;;;2.25;;
38083;SDS011;23894;51.466;7.444;2022-09-20T15:56:29;6.38;;;2.05;;
38083;SDS011;23894;51.466;7.444;2022-09-20T15:58:31;5.97;;;1.80;;
38083;SDS011;23894;51.466;7.444;2022-09-20T16:00:33;5.15;;;1.55;;
38083;SDS011;23894;51.466;7.444;2022-09-20T16:02:34;5.75;;;1.63;;
38083;SDS011;23894;51.466;7.444;2022-09-20T16:04:36;6.18;;;1.75;;
38083;SDS011;23894;51.466;7.444;2022-09-20T16:08:41;7.40;;;1.50;;
38083;SDS011;23894;51.466;7.444;2022-09-20T16:10:53;6.30;;;1.67;;
38083;SDS011;23894;51.466;7.444;2022-09-20T16:12:57;6.20;;;1.52;;
38083;SDS011;23894;51.466;7.444;2022-09-20T16:14:59;5.78;;;1.50;;
38083;SDS011;23894;51.466;7.444;2022-09-20T16:17:01;6.32;;;1.55;;
38083;SDS011;23894;51.466;7.444;2022-09-20T16:19:03;6.00;;;1.75;;
38083;SDS011;23894;51.466;7.444;2022-09-20T16:21:18;5.00;;;1.70;;
38083;SDS011;23894;51.466;7.444;2022-09-20T16:23:20;6.80;;;1.77;;
38083;SDS011;23894;51.466;7.444;2022-09-20T16:25:23;5.78;;;1.40;;
38083;SDS011;23894;51.466;7.444;2022-09-20T16:27:24;6.75;;;1.48;;
38083;SDS011;23894;51.466;7.444;2022-09-20T16:29:26;6.00;;;1.60;;
38083;SDS011;23894;51.466;7.444;2022-09-20T16:31:44;6.10;;;1.48;;
38083;SDS011;23894;51.466;7.444;2022-09-20T16:33:47;3.40;;;1.17;;
38083;SDS011;23894;51.466;7.444;2022-09-20T16:35:50;8.73;;;1.77;;
38083;SDS011;23894;51.466;7.444;2022-09-20T16:37:52;7.35;;;1.70;;
38083;SDS011;23894;51.466;7.444;2022-09-20T16:39:54;5.80;;;1.60;;
38083;SDS011;23894;51.466;7.444;2022-09-20T16:42:01;5.78;;;1.60;;
38083;SDS011;23894;51.466;7.444;2022-09-20T16:44:06;6.63;;;1.52;;
38083;SDS011;23894;51.466;7.444;2022-09-20T16:46:08;6.30;;;1.88;;
38083;SDS011;23894;51.466;7.444;2022-09-20T16:48:12;4.40;;;1.58;;
38083;SDS011;23894;51.466;7.444;2022-09-20T16:50:14;6.53;;;1.60;;
38083;SDS011;23894;51.466;7.444;2022-09-20T16:52:16;8.80;;;3.65;;
38083;SDS011;23894;51.466;7.444;2022-09-20T16:54:18;8.50;;;3.00;;
38083;SDS011;23894;51.466;7.444;2022-09-20T16:56:22;8.38;;;3.00;;
38083;SDS011;23894;51.466;7.444;2022-09-20T16:58:27;7.05;;;3.08;;
38083;SDS011;23894;51.466;7.444;2022-09-20T17:00:29;6.72;;;2.53;;
38083;SDS011;23894;51.466;7.444;2022-09-20T17:02:32;7.65;;;2.72;;
38083;SDS011;23894;51.466;7.444;2022-09-20T17:04:36;8.07;;;3.08;;
38083;SDS011;23894;51.466;7.444;2022-09-20T17:06:37;8.90;;;3.67;;
38083;SDS011;23894;51.466;7.444;2022-09-20T17:08:40;7.93;;;3.60;;
38083;SDS011;23894;51.466;7.444;2022-09-20T17:10:43;11.02;;;3.20;;
38083;SDS011;23894;51.466;7.444;2022-09-20T17:12:46;7.72;;;3.05;;
38083;SDS011;23894;51.466;7.444;2022-09-20T17:14:52;8.57;;;3.30;;
38083;SDS011;23894;51.466;7.444;2022-09-20T17:16:54;10.18;;;2.83;;
38083;SDS011;23894;51.466;7.444;2022-09-20T17:18:58;9.88;;;2.55;;
38083;SDS011;23894;51.466;7.444;2022-09-20T17:21:04;6.97;;;2.55;;
38083;SDS011;23894;51.466;7.444;2022-09-20T17:23:06;6.43;;;2.38;;
38083;SDS011;23894;51.466;7.444;2022-09-20T17:25:09;6.38;;;2.20;;
38083;SDS011;23894;51.466;7.444;2022-09-20T17:27:12;5.88;;;2.17;;
38083;SDS011;23894;51.466;7.444;2022-09-20T17:29:14;9.30;;;2.35;;
38083;SDS011;23894;51.466;7.444;2022-09-20T17:31:17;5.07;;;1.95;;
38083;SDS011;23894;51.466;7.444;2022-09-20T17:33:20;8.73;;;2.33;;
38083;SDS011;23894;51.466;7.444;2022-09-20T17:35:22;5.97;;;2.08;;
38083;SDS011;23894;51.466;7.444;2022-09-20T17:37:24;8.10;;;2.30;;
38083;SDS011;23894;51.466;7.444;2022-09-20T17:39:26;6.63;;;2.13;;
38083;SDS011;23894;51.466;7.444;2022-09-20T17:41:28;7.20;;;2.20;;
38083;SDS011;23894;51.466;7.444;2022-09-20T17:43:30;6.47;;;2.50;;
38083;SDS011;23894;51.466;7.444;2022-09-20T17:45:33;6.28;;;2.25;;
38083;SDS011;23894;51.466;7.444;2022-09-20T17:47:35;8.73;;;2.35;;